sensor_id;sensor_type;location;lat;lon;timestamp;pressure;altitude;pressure_sealevel;temperature;humidity
61018;BME280;48171;51.550;5.434;2023-03-14T00:02:18;98968.44;;;11.07;89.47
61018;BME280;48171;51.550;5.434;2023-03-14T00:04:43;98982.34;;;11.11;88.63
61018;BME280;48171;51.550;5.434;2023-03-14T00:07:10;98975.41;;;11.08;86.89
61018;BME280;48171;51.550;5.434;2023-03-14T00:09:36;98976.28;;;11.09;86.89
61018;BME280;48171;51.550;5.434;2023-03-14T00:12:01;98967.53;;;11.07;86.65
61018;BME280;48171;51.550;5.434;2023-03-14T00:14:28;98968.66;;;11.01;86.51
61018;BME280;48171;51.550;5.434;2023-03-14T00:16:53;98966.97;;;10.98;86.57
61018;BME280;48171;51.550;5.434;2023-03-14T00:19:19;98970.81;;;10.91;85.79
61018;BME280;48171;51.550;5.434;2023-03-14T00:21:44;98981.47;;;10.88;85.96
61018;BME280;48171;51.550;5.434;2023-03-14T00:24:09;98982.50;;;10.84;85.89
61018;BME280;48171;51.550;5.434;2023-03-14T00:26:35;98987.19;;;10.77;85.40
61018;BME280;48171;51.550;5.434;2023-03-14T00:29:00;98994.41;;;10.72;85.34
61018;BME280;48171;51.550;5.434;2023-03-14T00:31:26;98991.94;;;10.68;85.49
61018;BME280;48171;51.550;5.434;2023-03-14T00:33:53;98994.13;;;10.56;84.61
61018;BME280;48171;51.550;5.434;2023-03-14T00:36:18;99006.22;;;10.62;84.08
61018;BME280;48171;51.550;5.434;2023-03-14T00:38:47;98999.19;;;10.63;84.15
61018;BME280;48171;51.550;5.434;2023-03-14T00:41:21;99001.84;;;10.63;83.67
61018;BME280;48171;51.550;5.434;2023-03-14T00:43:51;98999.09;;;10.64;84.22
61018;BME280;48171;51.550;5.434;2023-03-14T00:46:19;99008.81;;;10.64;85.04
61018;BME280;48171;51.550;5.434;2023-03-14T00:48:45;99000.00;;;10.65;85.11
61018;BME280;48171;51.550;5.434;2023-03-14T00:51:11;99005.28;;;10.65;85.09
61018;BME280;48171;51.550;5.434;2023-03-14T00:53:39;99002.72;;;10.61;84.26
61018;BME280;48171;51.550;5.434;2023-03-14T00:56:10;99000.94;;;10.62;84.69
61018;BME280;48171;51.550;5.434;2023-03-14T00:58:35;99009.66;;;10.64;84.36
61018;BME280;48171;51.550;5.434;2023-03-14T01:01:13;99007.91;;;10.65;84.49
61018;BME280;48171;51.550;5.434;2023-03-14T01:03:39;99003.53;;;10.64;84.09
61018;BME280;48171;51.550;5.434;2023-03-14T01:06:19;98992.13;;;10.63;84.10
61018;BME280;48171;51.550;5.434;2023-03-14T01:08:45;98993.91;;;10.63;83.76
61018;BME280;48171;51.550;5.434;2023-03-14T01:11:18;98991.25;;;10.63;83.48
61018;BME280;48171;51.550;5.434;2023-03-14T01:13:43;98991.25;;;10.63;83.85
61018;BME280;48171;51.550;5.434;2023-03-14T01:16:10;98992.13;;;10.63;84.06
61018;BME280;48171;51.550;5.434;2023-03-14T01:18:38;98977.19;;;10.62;83.65
61018;BME280;48171;51.550;5.434;2023-03-14T01:21:10;98986.94;;;10.60;83.82
61018;BME280;48171;51.550;5.434;2023-03-14T01:23:36;98982.63;;;10.57;84.09
61018;BME280;48171;51.550;5.434;2023-03-14T01:26:01;98968.00;;;10.49;83.19
61018;BME280;48171;51.550;5.434;2023-03-14T01:28:33;98981.03;;;10.53;84.12
61018;BME280;48171;51.550;5.434;2023-03-14T01:31:06;98976.59;;;10.54;84.52
61018;BME280;48171;51.550;5.434;2023-03-14T01:33:31;98974.03;;;10.52;84.52
61018;BME280;48171;51.550;5.434;2023-03-14T01:35:57;98971.59;;;10.46;84.92
61018;BME280;48171;51.550;5.434;2023-03-14T01:38:23;98962.06;;;10.42;84.27
61018;BME280;48171;51.550;5.434;2023-03-14T01:40:49;98962.94;;;10.43;84.24
61018;BME280;48171;51.550;5.434;2023-03-14T01:43:17;98964.44;;;10.50;84.21
61018;BME280;48171;51.550;5.434;2023-03-14T01:48:25;98954.06;;;10.45;84.92
61018;BME280;48171;51.550;5.434;2023-03-14T01:50:54;98950.66;;;10.41;85.19
61018;BME280;48171;51.550;5.434;2023-03-14T01:53:23;98943.72;;;10.39;85.30
61018;BME280;48171;51.550;5.434;2023-03-14T01:56:15;98921.91;;;10.34;86.07
61018;BME280;48171;51.550;5.434;2023-03-14T01:58:45;98910.06;;;10.20;86.04
61018;BME280;48171;51.550;5.434;2023-03-14T02:01:14;98904.78;;;10.20;86.41
61018;BME280;48171;51.550;5.434;2023-03-14T02:03:56;98945.56;;;10.37;86.63
61018;BME280;48171;51.550;5.434;2023-03-14T02:06:35;98940.31;;;10.35;86.76
61018;BME280;48171;51.550;5.434;2023-03-14T02:09:03;98937.72;;;10.34;86.58
61018;BME280;48171;51.550;5.434;2023-03-14T02:11:29;98938.72;;;10.31;86.82
61018;BME280;48171;51.550;5.434;2023-03-14T02:13:57;98936.03;;;10.33;86.75
61018;BME280;48171;51.550;5.434;2023-03-14T02:16:23;98930.75;;;10.33;87.44
61018;BME280;48171;51.550;5.434;2023-03-14T02:18:48;98938.63;;;10.34;87.14
61018;BME280;48171;51.550;5.434;2023-03-14T02:21:23;98929.88;;;10.32;87.41
61018;BME280;48171;51.550;5.434;2023-03-14T02:24:09;98934.25;;;10.33;87.41
61018;BME280;48171;51.550;5.434;2023-03-14T02:27:11;98938.63;;;10.34;87.96
61018;BME280;48171;51.550;5.434;2023-03-14T02:29:43;98935.25;;;10.29;88.34
61018;BME280;48171;51.550;5.434;2023-03-14T02:32:11;98923.13;;;10.24;88.68
61018;BME280;48171;51.550;5.434;2023-03-14T02:34:37;98923.06;;;10.25;88.85
61018;BME280;48171;51.550;5.434;2023-03-14T02:37:04;98915.38;;;10.19;88.85
61018;BME280;48171;51.550;5.434;2023-03-14T02:39:43;98914.53;;;10.18;88.98
61018;BME280;48171;51.550;5.434;2023-03-14T02:42:13;98912.13;;;10.12;88.98
61018;BME280;48171;51.550;5.434;2023-03-14T02:45:44;98912.13;;;10.12;89.54
61018;BME280;48171;51.550;5.434;2023-03-14T02:47:47;98919.31;;;10.07;89.76
61018;BME280;48171;51.550;5.434;2023-03-14T02:50:21;98911.44;;;10.06;90.45
61018;BME280;48171;51.550;5.434;2023-03-14T02:52:47;98926.97;;;10.15;90.05
61018;BME280;48171;51.550;5.434;2023-03-14T02:55:13;98907.69;;;10.13;89.82
61018;BME280;48171;51.550;5.434;2023-03-14T02:57:39;98919.84;;;10.17;89.90
61018;BME280;48171;51.550;5.434;2023-03-14T03:00:04;98918.06;;;10.17;89.82
61018;BME280;48171;51.550;5.434;2023-03-14T03:02:30;98919.84;;;10.17;90.12
61018;BME280;48171;51.550;5.434;2023-03-14T03:04:56;98926.88;;;10.18;89.90
61018;BME280;48171;51.550;5.434;2023-03-14T03:07:21;98925.97;;;10.17;89.31
61018;BME280;48171;51.550;5.434;2023-03-14T03:09:46;98927.72;;;10.18;89.78
61018;BME280;48171;51.550;5.434;2023-03-14T03:12:12;98933.00;;;10.18;89.35
61018;BME280;48171;51.550;5.434;2023-03-14T03:14:37;98916.34;;;10.16;90.10
61018;BME280;48171;51.550;5.434;2023-03-14T03:17:04;98927.69;;;10.20;90.31
61018;BME280;48171;51.550;5.434;2023-03-14T03:19:30;98929.44;;;10.19;90.45
61018;BME280;48171;51.550;5.434;2023-03-14T03:21:56;98926.78;;;10.19;90.00
61018;BME280;48171;51.550;5.434;2023-03-14T03:24:21;98919.75;;;10.20;90.23
61018;BME280;48171;51.550;5.434;2023-03-14T03:26:46;98910.19;;;10.16;90.15
61018;BME280;48171;51.550;5.434;2023-03-14T03:29:12;98912.75;;;10.19;90.57
61018;BME280;48171;51.550;5.434;2023-03-14T03:31:38;98900.53;;;10.16;90.43
61018;BME280;48171;51.550;5.434;2023-03-14T03:34:04;98906.66;;;10.17;90.27
61018;BME280;48171;51.550;5.434;2023-03-14T03:36:32;98913.78;;;10.15;90.92
61018;BME280;48171;51.550;5.434;2023-03-14T03:39:00;98912.03;;;10.14;90.02
61018;BME280;48171;51.550;5.434;2023-03-14T03:41:26;98906.72;;;10.15;90.58
61018;BME280;48171;51.550;5.434;2023-03-14T03:43:51;98901.56;;;10.12;90.86
61018;BME280;48171;51.550;5.434;2023-03-14T03:46:17;98902.41;;;10.13;90.52
61018;BME280;48171;51.550;5.434;2023-03-14T03:48:42;98902.41;;;10.13;90.78
61018;BME280;48171;51.550;5.434;2023-03-14T03:51:12;98898.97;;;10.11;90.17
61018;BME280;48171;51.550;5.434;2023-03-14T03:53:37;98897.94;;;10.15;90.30
61018;BME280;48171;51.550;5.434;2023-03-14T03:56:02;98897.09;;;10.14;89.77
61018;BME280;48171;51.550;5.434;2023-03-14T03:58:28;98900.63;;;10.13;90.17
61018;BME280;48171;51.550;5.434;2023-03-14T04:00:53;98890.06;;;10.13;90.11
61018;BME280;48171;51.550;5.434;2023-03-14T04:03:19;98904.25;;;10.11;90.87
61018;BME280;48171;51.550;5.434;2023-03-14T04:05:44;98895.63;;;10.06;91.51
61018;BME280;48171;51.550;5.434;2023-03-14T04:08:09;98894.81;;;10.04;92.71
61018;BME280;48171;51.550;5.434;2023-03-14T04:10:35;98898.47;;;9.99;93.39
61018;BME280;48171;51.550;5.434;2023-03-14T04:13:00;98895.97;;;9.96;92.96
61018;BME280;48171;51.550;5.434;2023-03-14T04:15:25;98886.31;;;9.95;93.29
61018;BME280;48171;51.550;5.434;2023-03-14T04:17:50;98887.25;;;9.94;92.84
61018;BME280;48171;51.550;5.434;2023-03-14T04:20:16;98884.66;;;9.93;92.98
61018;BME280;48171;51.550;5.434;2023-03-14T04:22:41;98877.69;;;9.92;92.80
61018;BME280;48171;51.550;5.434;2023-03-14T04:25:06;98891.72;;;9.92;92.84
61018;BME280;48171;51.550;5.434;2023-03-14T04:27:32;98882.88;;;9.93;92.33
61018;BME280;48171;51.550;5.434;2023-03-14T04:29:57;98884.72;;;9.91;92.44
61018;BME280;48171;51.550;5.434;2023-03-14T04:32:22;98883.91;;;9.89;93.15
61018;BME280;48171;51.550;5.434;2023-03-14T04:34:47;98883.91;;;9.89;93.45
61018;BME280;48171;51.550;5.434;2023-03-14T04:37:12;98883.97;;;9.88;94.52
61018;BME280;48171;51.550;5.434;2023-03-14T04:39:40;98877.91;;;9.86;95.57
61018;BME280;48171;51.550;5.434;2023-03-14T04:42:06;98882.28;;;9.85;96.19
61018;BME280;48171;51.550;5.434;2023-03-14T04:44:31;98879.81;;;9.80;96.92
61018;BME280;48171;51.550;5.434;2023-03-14T04:46:56;98872.78;;;9.81;97.27
61018;BME280;48171;51.550;5.434;2023-03-14T04:49:22;98876.34;;;9.80;98.00
61018;BME280;48171;51.550;5.434;2023-03-14T04:51:47;98879.03;;;9.78;98.85
61018;BME280;48171;51.550;5.434;2023-03-14T04:54:12;98888.75;;;9.76;100.00
61018;BME280;48171;51.550;5.434;2023-03-14T04:56:37;98880.94;;;9.73;100.00
61018;BME280;48171;51.550;5.434;2023-03-14T04:59:03;98882.84;;;9.70;100.00
61018;BME280;48171;51.550;5.434;2023-03-14T05:01:28;98895.28;;;9.66;100.00
61018;BME280;48171;51.550;5.434;2023-03-14T05:03:53;98884.00;;;9.61;100.00
61018;BME280;48171;51.550;5.434;2023-03-14T05:06:19;98891.19;;;9.57;100.00
61018;BME280;48171;51.550;5.434;2023-03-14T05:08:44;98892.94;;;9.57;100.00
61018;BME280;48171;51.550;5.434;2023-03-14T05:11:10;98891.25;;;9.56;100.00
61018;BME280;48171;51.550;5.434;2023-03-14T05:13:35;98879.03;;;9.53;100.00
61018;BME280;48171;51.550;5.434;2023-03-14T05:16:04;98884.44;;;9.49;100.00
61018;BME280;48171;51.550;5.434;2023-03-14T05:18:29;98884.44;;;9.49;100.00
61018;BME280;48171;51.550;5.434;2023-03-14T05:20:55;98888.00;;;9.48;100.00
61018;BME280;48171;51.550;5.434;2023-03-14T05:23:20;98887.25;;;9.44;100.00
61018;BME280;48171;51.550;5.434;2023-03-14T05:25:45;98881.13;;;9.44;100.00
61018;BME280;48171;51.550;5.434;2023-03-14T05:28:11;98875.03;;;9.41;100.00
61018;BME280;48171;51.550;5.434;2023-03-14T05:30:36;98874.97;;;9.43;100.00
61018;BME280;48171;51.550;5.434;2023-03-14T05:33:01;98872.28;;;9.45;100.00
61018;BME280;48171;51.550;5.434;2023-03-14T05:35:27;98868.03;;;9.40;100.00
61018;BME280;48171;51.550;5.434;2023-03-14T05:37:52;98866.19;;;9.43;100.00
61018;BME280;48171;51.550;5.434;2023-03-14T05:40:17;98867.06;;;9.43;100.00
61018;BME280;48171;51.550;5.434;2023-03-14T05:42:43;98860.13;;;9.40;100.00
61018;BME280;48171;51.550;5.434;2023-03-14T05:45:08;98864.50;;;9.41;100.00
61018;BME280;48171;51.550;5.434;2023-03-14T05:47:33;98859.22;;;9.41;100.00
61018;BME280;48171;51.550;5.434;2023-03-14T05:49:58;98864.41;;;9.43;100.00
61018;BME280;48171;51.550;5.434;2023-03-14T05:52:23;98855.66;;;9.43;100.00
61018;BME280;48171;51.550;5.434;2023-03-14T05:54:49;98855.59;;;9.44;100.00
61018;BME280;48171;51.550;5.434;2023-03-14T05:57:14;98854.84;;;9.40;100.00
61018;BME280;48171;51.550;5.434;2023-03-14T05:59:42;98856.63;;;9.40;100.00
61018;BME280;48171;51.550;5.434;2023-03-14T06:02:10;98851.34;;;9.40;100.00
61018;BME280;48171;51.550;5.434;2023-03-14T06:04:36;98855.78;;;9.39;100.00
61018;BME280;48171;51.550;5.434;2023-03-14T06:07:01;98836.53;;;9.37;100.00
61018;BME280;48171;51.550;5.434;2023-03-14T06:09:26;98840.97;;;9.35;100.00
61018;BME280;48171;51.550;5.434;2023-03-14T06:11:51;98845.31;;;9.36;100.00
61018;BME280;48171;51.550;5.434;2023-03-14T06:14:17;98845.44;;;9.33;100.00
61018;BME280;48171;51.550;5.434;2023-03-14T06:16:42;98847.16;;;9.34;100.00
61018;BME280;48171;51.550;5.434;2023-03-14T06:19:07;98851.56;;;9.34;100.00
61018;BME280;48171;51.550;5.434;2023-03-14T06:21:32;98856.00;;;9.33;100.00
61018;BME280;48171;51.550;5.434;2023-03-14T06:23:57;98852.47;;;9.33;100.00
61018;BME280;48171;51.550;5.434;2023-03-14T06:26:23;98848.97;;;9.32;100.00
61018;BME280;48171;51.550;5.434;2023-03-14T06:28:48;98850.72;;;9.33;100.00
61018;BME280;48171;51.550;5.434;2023-03-14T06:31:13;98853.34;;;9.33;100.00
61018;BME280;48171;51.550;5.434;2023-03-14T06:33:38;98846.31;;;9.34;100.00
61018;BME280;48171;51.550;5.434;2023-03-14T06:36:04;98855.00;;;9.36;100.00
61018;BME280;48171;51.550;5.434;2023-03-14T06:38:29;98859.34;;;9.37;100.00
61018;BME280;48171;51.550;5.434;2023-03-14T06:40:54;98862.81;;;9.39;100.00
61018;BME280;48171;51.550;5.434;2023-03-14T06:43:19;98872.41;;;9.41;100.00
61018;BME280;48171;51.550;5.434;2023-03-14T06:45:45;98867.00;;;9.45;100.00
61018;BME280;48171;51.550;5.434;2023-03-14T06:48:10;98868.63;;;9.49;100.00
61018;BME280;48171;51.550;5.434;2023-03-14T06:50:35;98871.03;;;9.55;100.00
61018;BME280;48171;51.550;5.434;2023-03-14T06:53:00;98865.56;;;9.61;100.00
61018;BME280;48171;51.550;5.434;2023-03-14T06:55:25;98869.88;;;9.64;100.00
61018;BME280;48171;51.550;5.434;2023-03-14T06:57:51;98873.31;;;9.66;100.00
61018;BME280;48171;51.550;5.434;2023-03-14T07:00:16;98874.94;;;9.70;100.00
61018;BME280;48171;51.550;5.434;2023-03-14T07:02:41;98874.81;;;9.73;100.00
61018;BME280;48171;51.550;5.434;2023-03-14T07:05:07;98887.03;;;9.75;100.00
61018;BME280;48171;51.550;5.434;2023-03-14T07:07:32;98887.16;;;9.72;100.00
61018;BME280;48171;51.550;5.434;2023-03-14T07:09:57;98888.03;;;9.71;100.00
61018;BME280;48171;51.550;5.434;2023-03-14T07:12:23;98889.03;;;9.69;100.00
61018;BME280;48171;51.550;5.434;2023-03-14T07:14:48;98893.53;;;9.65;100.00
61018;BME280;48171;51.550;5.434;2023-03-14T07:17:13;98888.34;;;9.64;100.00
61018;BME280;48171;51.550;5.434;2023-03-14T07:19:38;98905.91;;;9.63;100.00
61018;BME280;48171;51.550;5.434;2023-03-14T07:22:04;98906.84;;;9.62;100.00
61018;BME280;48171;51.550;5.434;2023-03-14T07:24:30;98935.91;;;9.60;100.00
61018;BME280;48171;51.550;5.434;2023-03-14T07:26:55;98992.22;;;9.58;100.00
61018;BME280;48171;51.550;5.434;2023-03-14T07:29:20;99008.97;;;9.29;100.00
61018;BME280;48171;51.550;5.434;2023-03-14T07:31:45;99026.50;;;9.01;100.00
61018;BME280;48171;51.550;5.434;2023-03-14T07:34:10;99036.03;;;8.76;100.00
61018;BME280;48171;51.550;5.434;2023-03-14T07:36:36;99038.22;;;8.60;100.00
61018;BME280;48171;51.550;5.434;2023-03-14T07:39:01;99052.72;;;8.44;100.00
61018;BME280;48171;51.550;5.434;2023-03-14T07:41:26;99056.56;;;8.30;100.00
61018;BME280;48171;51.550;5.434;2023-03-14T07:43:51;99071.56;;;8.27;100.00
61018;BME280;48171;51.550;5.434;2023-03-14T07:46:17;99071.72;;;8.20;100.00
61018;BME280;48171;51.550;5.434;2023-03-14T07:48:42;99081.50;;;8.15;100.00
61018;BME280;48171;51.550;5.434;2023-03-14T07:51:07;99084.16;;;8.14;100.00
61018;BME280;48171;51.550;5.434;2023-03-14T07:53:33;99099.06;;;8.15;100.00
61018;BME280;48171;51.550;5.434;2023-03-14T07:55:58;99114.13;;;8.08;100.00
61018;BME280;48171;51.550;5.434;2023-03-14T07:58:23;99108.91;;;8.07;100.00
61018;BME280;48171;51.550;5.434;2023-03-14T08:00:49;99116.66;;;8.11;100.00
61018;BME280;48171;51.550;5.434;2023-03-14T08:03:14;99127.31;;;8.07;100.00
61018;BME280;48171;51.550;5.434;2023-03-14T08:05:39;99135.19;;;8.07;100.00
61018;BME280;48171;51.550;5.434;2023-03-14T08:08:05;99140.47;;;8.07;100.00
61018;BME280;48171;51.550;5.434;2023-03-14T08:10:30;99143.09;;;8.07;100.00
61018;BME280;48171;51.550;5.434;2023-03-14T08:12:56;99165.84;;;8.08;100.00
61018;BME280;48171;51.550;5.434;2023-03-14T08:15:22;99156.25;;;8.07;100.00
61018;BME280;48171;51.550;5.434;2023-03-14T08:17:47;99166.78;;;8.05;100.00
61018;BME280;48171;51.550;5.434;2023-03-14T08:20:20;99181.84;;;8.00;100.00
61018;BME280;48171;51.550;5.434;2023-03-14T08:22:45;99196.94;;;7.92;100.00
61018;BME280;48171;51.550;5.434;2023-03-14T08:25:11;99200.38;;;7.94;100.00
61018;BME280;48171;51.550;5.434;2023-03-14T08:27:36;99213.44;;;7.98;100.00
61018;BME280;48171;51.550;5.434;2023-03-14T08:30:04;99224.75;;;8.02;100.00
61018;BME280;48171;51.550;5.434;2023-03-14T08:32:29;99237.94;;;8.00;100.00
61018;BME280;48171;51.550;5.434;2023-03-14T08:34:55;99244.16;;;7.96;100.00
61018;BME280;48171;51.550;5.434;2023-03-14T08:37:20;99248.56;;;7.96;100.00
61018;BME280;48171;51.550;5.434;2023-03-14T08:39:46;99256.34;;;7.99;100.00
61018;BME280;48171;51.550;5.434;2023-03-14T08:42:11;99262.44;;;8.02;100.00
61018;BME280;48171;51.550;5.434;2023-03-14T08:44:36;99271.19;;;8.03;100.00
61018;BME280;48171;51.550;5.434;2023-03-14T08:47:01;99277.41;;;7.99;100.00
61018;BME280;48171;51.550;5.434;2023-03-14T08:49:26;99291.38;;;8.01;100.00
61018;BME280;48171;51.550;5.434;2023-03-14T08:51:52;99295.75;;;8.02;100.00
61018;BME280;48171;51.550;5.434;2023-03-14T08:54:17;99310.59;;;8.05;100.00
61018;BME280;48171;51.550;5.434;2023-03-14T08:56:43;99310.66;;;8.01;100.00
61018;BME280;48171;51.550;5.434;2023-03-14T08:59:08;99317.72;;;7.99;100.00
61018;BME280;48171;51.550;5.434;2023-03-14T09:01:35;99323.91;;;7.97;100.00
61018;BME280;48171;51.550;5.434;2023-03-14T09:04:00;99340.53;;;7.99;100.00
61018;BME280;48171;51.550;5.434;2023-03-14T09:06:26;99343.13;;;8.00;100.00
61018;BME280;48171;51.550;5.434;2023-03-14T09:08:51;99353.75;;;7.96;100.00
61018;BME280;48171;51.550;5.434;2023-03-14T09:11:16;99353.81;;;7.93;100.00
61018;BME280;48171;51.550;5.434;2023-03-14T09:13:43;99368.63;;;7.95;100.00
61018;BME280;48171;51.550;5.434;2023-03-14T09:16:08;99380.06;;;7.96;100.00
61018;BME280;48171;51.550;5.434;2023-03-14T09:18:34;99387.16;;;7.89;100.00
61018;BME280;48171;51.550;5.434;2023-03-14T09:20:59;99414.53;;;7.80;100.00
61018;BME280;48171;51.550;5.434;2023-03-14T09:23:24;99408.53;;;7.72;100.00
61018;BME280;48171;51.550;5.434;2023-03-14T09:25:53;99426.03;;;7.73;100.00
61018;BME280;48171;51.550;5.434;2023-03-14T09:28:19;99437.56;;;7.66;100.00
61018;BME280;48171;51.550;5.434;2023-03-14T09:30:44;99451.81;;;7.53;100.00
61018;BME280;48171;51.550;5.434;2023-03-14T09:33:09;99446.75;;;7.40;100.00
61018;BME280;48171;51.550;5.434;2023-03-14T09:35:34;99460.00;;;7.34;100.00
61018;BME280;48171;51.550;5.434;2023-03-14T09:37:59;99497.66;;;7.35;100.00
61018;BME280;48171;51.550;5.434;2023-03-14T09:40:24;99510.25;;;7.13;100.00
61018;BME280;48171;51.550;5.434;2023-03-14T09:42:56;99519.41;;;6.82;100.00
61018;BME280;48171;51.550;5.434;2023-03-14T09:47:46;99545.31;;;6.39;100.00
61018;BME280;48171;51.550;5.434;2023-03-14T09:50:15;99551.50;;;6.35;100.00
61018;BME280;48171;51.550;5.434;2023-03-14T09:52:41;99564.47;;;6.44;100.00
61018;BME280;48171;51.550;5.434;2023-03-14T09:55:11;99580.19;;;6.49;100.00
61018;BME280;48171;51.550;5.434;2023-03-14T09:57:38;99586.31;;;6.51;100.00
61018;BME280;48171;51.550;5.434;2023-03-14T10:00:14;99601.13;;;6.55;100.00
61018;BME280;48171;51.550;5.434;2023-03-14T10:02:40;99612.41;;;6.65;100.00
61018;BME280;48171;51.550;5.434;2023-03-14T10:05:20;99627.09;;;6.79;100.00
61018;BME280;48171;51.550;5.434;2023-03-14T10:07:45;99641.88;;;6.88;100.00
61018;BME280;48171;51.550;5.434;2023-03-14T10:10:12;99649.66;;;6.97;100.00
61018;BME280;48171;51.550;5.434;2023-03-14T10:12:38;99656.66;;;6.97;98.90
61018;BME280;48171;51.550;5.434;2023-03-14T10:15:12;99663.50;;;7.09;98.42
61018;BME280;48171;51.550;5.434;2023-03-14T10:17:42;99673.13;;;7.11;97.57
61018;BME280;48171;51.550;5.434;2023-03-14T10:20:15;99690.53;;;7.17;96.34
61018;BME280;48171;51.550;5.434;2023-03-14T10:22:52;99702.78;;;7.19;96.37
61018;BME280;48171;51.550;5.434;2023-03-14T10:25:28;99729.16;;;7.10;93.19
61018;BME280;48171;51.550;5.434;2023-03-14T10:27:54;99732.63;;;7.15;93.20
61018;BME280;48171;51.550;5.434;2023-03-14T10:35:43;99756.34;;;7.06;90.20
61018;BME280;48171;51.550;5.434;2023-03-14T10:38:12;99784.44;;;6.98;91.89
61018;BME280;48171;51.550;5.434;2023-03-14T10:40:38;99775.78;;;6.88;88.95
61018;BME280;48171;51.550;5.434;2023-03-14T10:43:05;99792.44;;;6.86;90.59
61018;BME280;48171;51.550;5.434;2023-03-14T10:45:43;99797.66;;;6.87;90.11
61018;BME280;48171;51.550;5.434;2023-03-14T10:48:21;99799.41;;;6.88;90.28
61018;BME280;48171;51.550;5.434;2023-03-14T10:50:53;99823.88;;;6.89;91.77
61018;BME280;48171;51.550;5.434;2023-03-14T10:53:19;99825.69;;;6.84;89.91
61018;BME280;48171;51.550;5.434;2023-03-14T10:55:45;99834.41;;;6.89;91.38
61018;BME280;48171;51.550;5.434;2023-03-14T10:58:24;99838.72;;;6.96;91.25
61018;BME280;48171;51.550;5.434;2023-03-14T11:00:51;99851.84;;;6.96;88.75
61018;BME280;48171;51.550;5.434;2023-03-14T11:03:16;99868.47;;;6.99;87.95
61018;BME280;48171;51.550;5.434;2023-03-14T11:05:56;99865.88;;;6.95;87.97
61018;BME280;48171;51.550;5.434;2023-03-14T11:08:27;99879.00;;;6.95;89.46
61018;BME280;48171;51.550;5.434;2023-03-14T11:11:01;99886.84;;;7.01;88.62
61018;BME280;48171;51.550;5.434;2023-03-14T11:21:47;99928.75;;;7.13;87.10
61018;BME280;48171;51.550;5.434;2023-03-14T11:29:26;99956.13;;;6.83;91.39
61018;BME280;48171;51.550;5.434;2023-03-14T11:31:54;99980.69;;;6.71;93.31
61018;BME280;48171;51.550;5.434;2023-03-14T11:34:35;100007.75;;;6.76;93.47
61018;BME280;48171;51.550;5.434;2023-03-14T11:37:03;100014.00;;;6.52;92.88
61018;BME280;48171;51.550;5.434;2023-03-14T11:39:35;100002.75;;;6.19;95.72
61018;BME280;48171;51.550;5.434;2023-03-14T11:42:01;100001.03;;;6.12;95.15
61018;BME280;48171;51.550;5.434;2023-03-14T11:44:30;100010.63;;;6.06;94.29
61018;BME280;48171;51.550;5.434;2023-03-14T11:47:00;100010.66;;;6.09;93.63
61018;BME280;48171;51.550;5.434;2023-03-14T11:49:36;100017.66;;;6.07;92.74
61018;BME280;48171;51.550;5.434;2023-03-14T11:52:14;100021.13;;;6.16;93.88
61018;BME280;48171;51.550;5.434;2023-03-14T11:54:46;100034.19;;;6.27;94.49
61018;BME280;48171;51.550;5.434;2023-03-14T11:57:16;100035.94;;;6.40;96.78
61018;BME280;48171;51.550;5.434;2023-03-14T11:59:45;100050.72;;;6.52;94.52
61018;BME280;48171;51.550;5.434;2023-03-14T12:04:47;100056.88;;;6.51;95.25
61018;BME280;48171;51.550;5.434;2023-03-14T12:07:23;100089.22;;;6.52;97.11
61018;BME280;48171;51.550;5.434;2023-03-14T12:09:51;100098.03;;;6.37;97.45
61018;BME280;48171;51.550;5.434;2023-03-14T12:12:27;100092.75;;;6.43;96.47
61018;BME280;48171;51.550;5.434;2023-03-14T12:15:03;100102.41;;;6.29;90.38
61018;BME280;48171;51.550;5.434;2023-03-14T12:17:35;100098.06;;;6.18;89.52
61018;BME280;48171;51.550;5.434;2023-03-14T12:20:03;100111.16;;;6.31;91.04
61018;BME280;48171;51.550;5.434;2023-03-14T12:22:33;100109.38;;;6.30;90.74
61018;BME280;48171;51.550;5.434;2023-03-14T12:25:00;100106.75;;;6.36;91.63
61018;BME280;48171;51.550;5.434;2023-03-14T12:27:47;100117.25;;;6.42;93.07
61018;BME280;48171;51.550;5.434;2023-03-14T12:33:10;100126.84;;;6.57;94.84
61018;BME280;48171;51.550;5.434;2023-03-14T12:35:40;100138.22;;;6.60;91.86
61018;BME280;48171;51.550;5.434;2023-03-14T12:38:10;100140.84;;;6.60;88.10
61018;BME280;48171;51.550;5.434;2023-03-14T12:40:39;100138.22;;;6.50;86.46
61018;BME280;48171;51.550;5.434;2023-03-14T12:43:10;100136.47;;;6.47;89.39
61018;BME280;48171;51.550;5.434;2023-03-14T12:46:07;100140.81;;;6.54;90.37
61018;BME280;48171;51.550;5.434;2023-03-14T12:48:32;100155.72;;;6.65;88.61
61018;BME280;48171;51.550;5.434;2023-03-14T12:51:04;100150.41;;;6.74;89.10
61018;BME280;48171;51.550;5.434;2023-03-14T12:56:06;100152.09;;;6.96;84.13
61018;BME280;48171;51.550;5.434;2023-03-14T12:58:35;100165.22;;;7.07;83.69
61018;BME280;48171;51.550;5.434;2023-03-14T13:01:04;100169.53;;;7.17;79.98
61018;BME280;48171;51.550;5.434;2023-03-14T13:03:36;100168.63;;;7.28;83.63
61018;BME280;48171;51.550;5.434;2023-03-14T13:06:03;100163.28;;;7.43;75.92
61018;BME280;48171;51.550;5.434;2023-03-14T13:08:34;100165.88;;;7.54;76.32
61018;BME280;48171;51.550;5.434;2023-03-14T13:10:59;100180.72;;;7.61;72.06
61018;BME280;48171;51.550;5.434;2023-03-14T13:13:26;100195.56;;;7.67;72.95
61018;BME280;48171;51.550;5.434;2023-03-14T13:15:55;100197.34;;;7.66;66.52
61018;BME280;48171;51.550;5.434;2023-03-14T13:18:35;100184.19;;;7.65;63.04
61018;BME280;48171;51.550;5.434;2023-03-14T13:23:38;100227.91;;;7.79;63.78
61018;BME280;48171;51.550;5.434;2023-03-14T13:26:05;100223.56;;;7.78;64.17
61018;BME280;48171;51.550;5.434;2023-03-14T13:28:34;100225.25;;;7.89;65.89
61018;BME280;48171;51.550;5.434;2023-03-14T13:31:01;100229.63;;;7.91;60.57
61018;BME280;48171;51.550;5.434;2023-03-14T13:33:26;100240.19;;;7.84;56.87
61018;BME280;48171;51.550;5.434;2023-03-14T13:35:56;100243.78;;;7.72;54.80
61018;BME280;48171;51.550;5.434;2023-03-14T13:38:23;100241.16;;;7.66;55.15
61018;BME280;48171;51.550;5.434;2023-03-14T13:40:49;100239.44;;;7.61;56.13